createdAt,value
2023-05-07T00:02:00.762Z,67.40
2023-05-07T00:04:29.249Z,67.20
2023-05-07T00:06:56.733Z,67.20
2023-05-07T00:09:23.535Z,67.70
2023-05-07T00:11:50.421Z,67.70
2023-05-07T00:14:17.192Z,67.80
2023-05-07T00:16:44.083Z,67.70
2023-05-07T00:19:10.988Z,68.20
2023-05-07T00:21:37.859Z,67.80
2023-05-07T00:24:05.100Z,67.80
2023-05-07T00:26:31.874Z,68.20
2023-05-07T00:28:58.642Z,68.40
2023-05-07T00:31:25.511Z,68.70
2023-05-07T00:33:52.329Z,68.50
2023-05-07T00:36:19.079Z,68.60
2023-05-07T00:38:45.935Z,68.80
2023-05-07T00:41:12.734Z,68.90
2023-05-07T00:43:39.608Z,69.00
2023-05-07T00:46:06.584Z,68.90
2023-05-07T00:48:33.685Z,68.90
2023-05-07T00:51:00.595Z,69.20
2023-05-07T00:53:27.658Z,69.20
2023-05-07T00:55:54.584Z,69.00
2023-05-07T00:58:22.163Z,69.10
2023-05-07T01:00:49.050Z,69.40
2023-05-07T01:03:16.017Z,69.60
2023-05-07T01:05:45.398Z,69.90
2023-05-07T01:08:12.864Z,69.90
2023-05-07T01:10:43.952Z,70.00
2023-05-07T01:13:11.592Z,70.10
2023-05-07T01:15:39.114Z,70.20
2023-05-07T01:18:08.024Z,70.30
2023-05-07T01:20:35.170Z,70.30
2023-05-07T01:23:02.353Z,70.30
2023-05-07T01:25:29.603Z,70.50
2023-05-07T01:27:56.399Z,70.30
2023-05-07T01:30:23.962Z,70.10
2023-05-07T01:33:03.713Z,69.90
2023-05-07T01:35:37.096Z,70.10
2023-05-07T01:38:05.562Z,69.70
2023-05-07T01:40:32.581Z,69.90
2023-05-07T01:42:59.666Z,70.20
2023-05-07T01:45:26.968Z,70.10
2023-05-07T01:47:55.285Z,70.30
2023-05-07T01:50:22.468Z,70.10
2023-05-07T01:52:51.971Z,70.10
2023-05-07T01:55:19.123Z,70.30
2023-05-07T01:57:45.935Z,70.20
2023-05-07T02:00:13.368Z,70.30
2023-05-07T02:02:40.606Z,70.30
2023-05-07T02:05:07.878Z,70.50
2023-05-07T02:07:34.688Z,70.30
2023-05-07T02:10:01.472Z,70.40
2023-05-07T02:12:28.304Z,70.40
2023-05-07T02:14:55.118Z,70.40
2023-05-07T02:17:21.944Z,70.50
2023-05-07T02:19:48.829Z,70.70
2023-05-07T02:22:16.481Z,70.50
2023-05-07T02:24:43.338Z,70.70
2023-05-07T02:27:10.226Z,70.90
2023-05-07T02:29:36.988Z,70.90
2023-05-07T02:32:03.976Z,71.20
2023-05-07T02:34:30.794Z,70.80
2023-05-07T02:36:57.748Z,71.00
2023-05-07T02:39:24.550Z,71.00
2023-05-07T02:41:51.343Z,71.10
2023-05-07T02:44:18.192Z,71.10
2023-05-07T02:46:45.014Z,71.10
2023-05-07T02:49:11.802Z,71.00
2023-05-07T02:51:38.690Z,71.10
2023-05-07T02:54:05.824Z,70.90
2023-05-07T02:56:32.638Z,70.70
2023-05-07T02:58:59.562Z,71.10
2023-05-07T03:01:26.440Z,71.00
2023-05-07T03:03:53.272Z,71.50
2023-05-07T03:06:20.155Z,71.30
2023-05-07T03:08:46.945Z,71.10
2023-05-07T03:11:13.977Z,71.40
2023-05-07T03:13:40.781Z,71.50
2023-05-07T03:16:07.762Z,71.50
2023-05-07T03:18:34.702Z,71.50
2023-05-07T03:21:01.651Z,71.90
2023-05-07T03:23:28.463Z,72.20
2023-05-07T03:25:55.347Z,72.20
2023-05-07T03:28:22.196Z,72.10
2023-05-07T03:30:49.076Z,72.00
2023-05-07T03:33:16.508Z,72.60
2023-05-07T03:35:43.301Z,72.50
2023-05-07T03:38:10.227Z,72.80
2023-05-07T03:40:37.041Z,73.20
2023-05-07T03:43:03.948Z,72.70
2023-05-07T03:45:30.799Z,73.10
2023-05-07T03:47:57.621Z,73.00
2023-05-07T03:50:24.440Z,72.70
2023-05-07T03:52:51.255Z,71.90
2023-05-07T03:55:18.038Z,71.70
2023-05-07T03:57:44.851Z,71.40
2023-05-07T04:00:12.584Z,71.00
2023-05-07T04:02:39.894Z,71.60
2023-05-07T04:05:07.112Z,71.80
2023-05-07T04:07:33.938Z,71.60
2023-05-07T04:10:00.858Z,71.50
2023-05-07T04:12:27.637Z,70.50
2023-05-07T04:14:54.433Z,69.70
2023-05-07T04:17:21.241Z,69.20
2023-05-07T04:19:48.022Z,69.50
2023-05-07T04:22:14.848Z,69.40
2023-05-07T04:24:41.670Z,69.50
2023-05-07T04:27:08.511Z,69.60
2023-05-07T04:29:35.389Z,69.60
2023-05-07T04:32:02.597Z,69.20
2023-05-07T04:34:29.478Z,69.30
2023-05-07T04:36:59.890Z,69.20
2023-05-07T04:39:26.712Z,69.20
2023-05-07T04:41:53.494Z,69.10
2023-05-07T04:44:20.291Z,69.80
2023-05-07T04:46:47.071Z,70.10
2023-05-07T04:49:13.913Z,70.40
2023-05-07T04:51:44.987Z,70.70
2023-05-07T04:54:11.919Z,71.10
2023-05-07T04:56:38.685Z,71.40
2023-05-07T04:59:05.612Z,71.90
2023-05-07T05:01:32.772Z,72.40
2023-05-07T05:04:01.248Z,72.60
2023-05-07T05:06:28.292Z,72.60
2023-05-07T05:08:55.097Z,72.10
2023-05-07T05:11:21.965Z,72.30
2023-05-07T05:13:50.487Z,72.60
2023-05-07T05:16:17.496Z,73.20
2023-05-07T05:18:44.463Z,73.30
2023-05-07T05:21:11.310Z,73.40
2023-05-07T05:23:38.156Z,73.60
2023-05-07T05:26:04.980Z,72.60
2023-05-07T05:28:31.825Z,72.90
2023-05-07T05:30:58.597Z,73.30
2023-05-07T05:33:25.404Z,73.60
2023-05-07T05:35:52.143Z,73.00
2023-05-07T05:38:18.985Z,72.20
2023-05-07T05:40:45.792Z,72.30
2023-05-07T05:43:12.633Z,72.50
2023-05-07T05:45:39.464Z,71.90
2023-05-07T05:48:06.641Z,71.40
2023-05-07T05:50:33.423Z,70.60
2023-05-07T05:53:00.478Z,70.40
2023-05-07T05:55:27.569Z,71.60
2023-05-07T05:57:54.373Z,71.70
2023-05-07T06:00:23.565Z,71.70
2023-05-07T06:02:50.596Z,71.10
2023-05-07T06:05:17.648Z,71.10
2023-05-07T06:07:44.487Z,72.10
2023-05-07T06:10:11.602Z,71.30
2023-05-07T06:12:38.837Z,71.60
2023-05-07T06:15:06.191Z,71.30
2023-05-07T06:17:33.066Z,70.80
2023-05-07T06:19:59.888Z,70.00
2023-05-07T06:22:26.680Z,68.60
2023-05-07T06:24:53.441Z,69.40
2023-05-07T06:27:20.229Z,69.90
2023-05-07T06:29:49.059Z,70.10
2023-05-07T06:32:16.041Z,70.10
2023-05-07T06:34:42.866Z,69.20
2023-05-07T06:37:09.875Z,69.00
2023-05-07T06:39:36.799Z,68.10
2023-05-07T06:42:05.537Z,68.80
2023-05-07T06:44:32.790Z,69.60
2023-05-07T06:46:59.913Z,69.00
2023-05-07T06:49:26.699Z,68.50
2023-05-07T06:51:53.635Z,68.70
2023-05-07T06:54:21.906Z,68.60
2023-05-07T06:56:48.672Z,68.10
2023-05-07T06:59:15.912Z,68.80
2023-05-07T07:01:42.745Z,68.80
2023-05-07T07:04:09.551Z,68.60
2023-05-07T07:06:36.502Z,68.10
2023-05-07T07:09:03.582Z,67.40
2023-05-07T07:11:30.373Z,67.70
2023-05-07T07:13:57.590Z,67.60
2023-05-07T07:16:24.453Z,66.80
2023-05-07T07:18:51.732Z,66.60
2023-05-07T07:21:18.566Z,66.70
2023-05-07T07:23:45.432Z,67.10
2023-05-07T07:26:12.224Z,67.50
2023-05-07T07:28:46.500Z,67.30
2023-05-07T07:31:14.166Z,67.10
2023-05-07T07:33:41.209Z,66.70
2023-05-07T07:36:08.568Z,66.50
2023-05-07T07:38:36.033Z,65.30
2023-05-07T07:41:03.002Z,64.90
2023-05-07T07:43:29.903Z,64.70
2023-05-07T07:45:56.983Z,63.00
2023-05-07T07:48:23.751Z,63.60
2023-05-07T07:50:52.255Z,63.60
2023-05-07T07:53:19.461Z,63.10
2023-05-07T07:55:46.297Z,63.30
2023-05-07T07:58:13.196Z,63.80
2023-05-07T08:00:40.012Z,62.90
2023-05-07T08:03:08.475Z,63.20
2023-05-07T08:05:35.595Z,62.00
2023-05-07T08:08:02.435Z,62.60
2023-05-07T08:10:29.316Z,61.90
2023-05-07T08:12:56.285Z,62.30
2023-05-07T08:15:23.089Z,62.30
2023-05-07T08:17:49.952Z,62.60
2023-05-07T08:20:16.839Z,62.70
2023-05-07T08:22:43.690Z,62.50
2023-05-07T08:25:10.942Z,62.50
2023-05-07T08:27:37.766Z,61.80
2023-05-07T08:30:05.892Z,61.00
2023-05-07T08:32:32.749Z,61.50
2023-05-07T08:34:59.494Z,62.00
2023-05-07T08:37:26.428Z,61.80
2023-05-07T08:39:53.260Z,61.30
2023-05-07T08:42:22.348Z,61.50
2023-05-07T08:44:54.087Z,61.70
2023-05-07T08:47:23.749Z,61.40
2023-05-07T08:49:51.597Z,61.50
2023-05-07T08:52:20.695Z,61.70
2023-05-07T08:54:48.392Z,61.90
2023-05-07T08:57:15.314Z,61.80
2023-05-07T08:59:43.088Z,61.80
2023-05-07T09:02:12.385Z,62.00
2023-05-07T09:04:39.325Z,61.60
2023-05-07T09:07:06.621Z,61.70
2023-05-07T09:09:34.798Z,61.80
2023-05-07T09:12:01.642Z,61.90
2023-05-07T09:14:28.707Z,61.80
2023-05-07T09:16:55.803Z,62.00
2023-05-07T09:19:26.929Z,62.10
2023-05-07T09:22:04.317Z,62.10
2023-05-07T09:24:35.936Z,62.20
2023-05-07T09:27:03.456Z,61.80
2023-05-07T09:29:31.288Z,62.20
2023-05-07T09:31:58.095Z,61.90
2023-05-07T09:34:24.904Z,62.10
2023-05-07T09:36:51.821Z,62.60
2023-05-07T09:39:18.748Z,63.60
2023-05-07T09:41:46.623Z,62.60
2023-05-07T09:44:16.968Z,61.80
2023-05-07T09:46:45.548Z,62.00
2023-05-07T09:49:26.006Z,62.00
2023-05-07T09:51:53.879Z,62.30
2023-05-07T09:54:20.844Z,62.00
2023-05-07T09:56:49.867Z,61.30
2023-05-07T09:59:17.710Z,62.00
2023-05-07T10:01:46.155Z,61.80
2023-05-07T10:04:13.734Z,60.40
2023-05-07T10:06:42.651Z,60.40
2023-05-07T10:09:10.817Z,60.90
2023-05-07T10:11:38.130Z,60.70
2023-05-07T10:14:06.925Z,60.90
2023-05-07T10:16:37.740Z,60.10
2023-05-07T10:19:06.093Z,60.10
2023-05-07T10:21:40.501Z,59.80
2023-05-07T10:24:15.528Z,59.50
2023-05-07T10:26:46.516Z,59.70
2023-05-07T10:29:33.999Z,60.00
2023-05-07T10:32:03.554Z,59.40
2023-05-07T10:34:39.915Z,59.90
2023-05-07T10:37:07.467Z,59.50
2023-05-07T10:39:35.505Z,59.50
2023-05-07T10:42:13.114Z,59.50
2023-05-07T10:44:40.372Z,59.60
2023-05-07T10:47:16.507Z,59.20
2023-05-07T10:49:43.235Z,59.90
2023-05-07T10:52:19.949Z,58.80
2023-05-07T10:54:47.367Z,59.20
2023-05-07T10:57:32.969Z,59.00
2023-05-07T10:59:59.823Z,59.20
2023-05-07T11:03:01.857Z,59.60
2023-05-07T11:05:33.449Z,59.30
2023-05-07T11:08:03.366Z,59.30
2023-05-07T11:10:48.887Z,59.30
2023-05-07T11:13:16.547Z,59.30
2023-05-07T11:15:48.480Z,59.10
2023-05-07T11:18:17.120Z,59.00
2023-05-07T11:20:48.833Z,58.50
2023-05-07T11:23:34.538Z,59.10
2023-05-07T11:26:01.771Z,58.70
2023-05-07T11:28:32.657Z,57.60
2023-05-07T11:30:59.605Z,57.90
2023-05-07T11:33:27.038Z,57.90
2023-05-07T11:35:54.997Z,58.10
2023-05-07T11:38:21.919Z,58.20
2023-05-07T11:40:52.364Z,57.90
2023-05-07T11:43:19.327Z,58.20
2023-05-07T11:45:47.472Z,58.10
2023-05-07T11:48:15.474Z,57.60
2023-05-07T11:51:00.660Z,57.60
2023-05-07T11:53:29.344Z,58.00
2023-05-07T11:55:59.219Z,58.00
2023-05-07T11:58:29.266Z,58.20
2023-05-07T12:00:56.138Z,58.30
2023-05-07T12:03:23.047Z,58.40
2023-05-07T12:05:49.971Z,58.60
2023-05-07T12:08:20.855Z,58.70
2023-05-07T12:10:50.798Z,58.20
2023-05-07T12:13:22.410Z,58.60
2023-05-07T12:15:53.375Z,58.50
2023-05-07T12:18:21.756Z,58.20
2023-05-07T12:20:48.902Z,57.90
2023-05-07T12:23:16.284Z,57.80
2023-05-07T12:25:47.964Z,57.60
2023-05-07T12:28:18.805Z,57.50
2023-05-07T12:30:47.534Z,57.10
2023-05-07T12:33:19.106Z,57.20
2023-05-07T12:35:46.092Z,56.70
2023-05-07T12:38:14.999Z,56.90
2023-05-07T12:40:52.082Z,56.90
2023-05-07T12:43:25.821Z,57.20
2023-05-07T12:45:57.426Z,56.70
2023-05-07T12:48:24.798Z,56.80
2023-05-07T12:50:53.018Z,56.30
2023-05-07T12:53:22.930Z,56.20
2023-05-07T12:55:51.236Z,56.40
2023-05-07T12:58:24.408Z,56.10
2023-05-07T13:00:52.368Z,56.60
2023-05-07T13:03:24.964Z,56.60
2023-05-07T13:05:52.954Z,56.70
2023-05-07T13:08:30.960Z,56.10
2023-05-07T13:11:04.662Z,56.80
2023-05-07T13:13:36.532Z,56.40
2023-05-07T13:16:04.882Z,56.00
2023-05-07T13:18:32.759Z,56.70
2023-05-07T13:21:01.170Z,56.80
2023-05-07T13:23:28.789Z,56.60
2023-05-07T13:25:56.877Z,56.90
2023-05-07T13:28:27.290Z,56.50
2023-05-07T13:30:55.813Z,57.60
2023-05-07T13:33:22.836Z,56.90
2023-05-07T13:35:49.710Z,56.90
2023-05-07T13:38:17.327Z,56.90
2023-05-07T13:40:44.216Z,56.50
2023-05-07T13:43:11.707Z,56.20
2023-05-07T13:45:38.681Z,56.30
2023-05-07T13:48:05.905Z,56.30
2023-05-07T13:50:32.792Z,56.50
2023-05-07T13:52:59.699Z,56.60
2023-05-07T13:55:26.782Z,56.60
2023-05-07T13:57:58.269Z,56.40
2023-05-07T14:00:26.402Z,56.50
2023-05-07T14:02:53.791Z,57.20
2023-05-07T14:05:20.989Z,56.80
2023-05-07T14:07:48.736Z,56.20
2023-05-07T14:10:15.907Z,56.20
2023-05-07T14:12:42.818Z,56.70
2023-05-07T14:15:09.987Z,56.20
2023-05-07T14:17:36.918Z,56.20
2023-05-07T14:20:04.237Z,56.20
2023-05-07T14:22:31.016Z,55.90
2023-05-07T14:25:14.641Z,56.00
2023-05-07T14:27:41.581Z,55.90
2023-05-07T14:30:09.036Z,55.90
2023-05-07T14:32:36.012Z,56.00
2023-05-07T14:35:02.897Z,56.00
2023-05-07T14:37:29.756Z,56.20
2023-05-07T14:39:56.628Z,56.70
2023-05-07T14:42:23.438Z,56.90
2023-05-07T14:44:50.413Z,56.80
2023-05-07T14:47:18.302Z,56.60
2023-05-07T14:49:46.636Z,56.20
2023-05-07T14:52:13.545Z,56.40
2023-05-07T14:54:40.750Z,56.30
2023-05-07T14:57:09.525Z,56.30
2023-05-07T14:59:36.491Z,56.40
2023-05-07T15:02:05.515Z,56.40
2023-05-07T15:04:33.790Z,56.50
2023-05-07T15:07:01.016Z,56.50
2023-05-07T15:09:27.893Z,55.80
2023-05-07T15:11:54.643Z,56.10
2023-05-07T15:14:22.887Z,56.30
2023-05-07T15:16:50.217Z,56.40
2023-05-07T15:19:18.057Z,56.30
2023-05-07T15:21:45.087Z,56.20
2023-05-07T15:24:11.977Z,56.40
2023-05-07T15:26:38.736Z,56.70
2023-05-07T15:29:11.114Z,56.90
2023-05-07T15:31:39.875Z,56.90
2023-05-07T15:34:06.999Z,56.50
2023-05-07T15:36:33.935Z,56.80
2023-05-07T15:39:01.136Z,56.90
2023-05-07T15:41:27.972Z,57.00
2023-05-07T15:43:54.910Z,57.30
2023-05-07T15:46:25.377Z,57.70
2023-05-07T15:48:53.515Z,58.00
2023-05-07T15:51:21.074Z,58.40
2023-05-07T15:53:48.194Z,58.50
2023-05-07T15:56:15.256Z,58.70
2023-05-07T15:58:42.109Z,58.90
2023-05-07T16:01:09.105Z,58.90
2023-05-07T16:03:36.255Z,58.80
2023-05-07T16:06:03.385Z,58.90
2023-05-07T16:08:30.175Z,59.10
2023-05-07T16:10:57.040Z,58.90
2023-05-07T16:13:24.990Z,59.20
2023-05-07T16:15:59.908Z,59.70
2023-05-07T16:18:27.069Z,59.80
2023-05-07T16:20:54.612Z,59.70
2023-05-07T16:23:21.714Z,59.80
2023-05-07T16:25:49.737Z,59.80
2023-05-07T16:28:16.819Z,60.10
2023-05-07T16:30:44.072Z,60.20
2023-05-07T16:33:11.014Z,60.70
2023-05-07T16:35:37.829Z,61.00
2023-05-07T16:38:09.989Z,61.90
2023-05-07T16:40:40.422Z,62.30
2023-05-07T16:43:07.522Z,62.20
2023-05-07T16:45:34.360Z,62.40
2023-05-07T16:48:02.977Z,62.70
2023-05-07T16:50:30.098Z,62.90
2023-05-07T16:52:57.003Z,63.10
2023-05-07T16:55:24.013Z,63.30
2023-05-07T16:57:50.981Z,63.30
2023-05-07T17:00:18.167Z,63.50
2023-05-07T17:02:45.881Z,63.60
2023-05-07T17:05:12.986Z,63.70
2023-05-07T17:07:40.341Z,63.40
2023-05-07T17:10:07.673Z,63.60
2023-05-07T17:12:35.916Z,63.60
2023-05-07T17:15:03.514Z,63.60
2023-05-07T17:17:30.403Z,63.70
2023-05-07T17:19:57.405Z,63.50
2023-05-07T17:22:25.761Z,63.80
2023-05-07T17:24:53.017Z,63.70
2023-05-07T17:27:20.716Z,64.20
2023-05-07T17:29:47.506Z,64.00
2023-05-07T17:32:14.510Z,63.80
2023-05-07T17:34:41.445Z,64.10
2023-05-07T17:37:08.321Z,64.10
2023-05-07T17:39:35.219Z,64.10
2023-05-07T17:42:02.066Z,64.40
2023-05-07T17:44:29.217Z,64.40
2023-05-07T17:46:56.008Z,64.40
2023-05-07T17:49:22.785Z,64.30
2023-05-07T17:51:54.601Z,64.00
2023-05-07T17:54:24.322Z,64.10
2023-05-07T17:56:51.246Z,64.20
2023-05-07T17:59:18.183Z,63.90
2023-05-07T18:01:45.350Z,64.20
2023-05-07T18:04:12.220Z,64.10
2023-05-07T18:06:39.859Z,64.10
2023-05-07T18:09:06.676Z,64.70
2023-05-07T18:11:33.749Z,64.50
2023-05-07T18:14:01.045Z,64.50
2023-05-07T18:16:27.935Z,64.40
2023-05-07T18:18:55.579Z,64.40
2023-05-07T18:21:22.505Z,64.40
2023-05-07T18:23:49.442Z,64.50
2023-05-07T18:26:16.559Z,64.50
2023-05-07T18:28:43.767Z,64.40
2023-05-07T18:31:10.866Z,64.40
2023-05-07T18:33:37.961Z,64.40
2023-05-07T18:36:05.036Z,64.20
2023-05-07T18:38:32.113Z,64.70
2023-05-07T18:41:04.213Z,64.70
2023-05-07T18:43:31.168Z,64.70
2023-05-07T18:45:58.435Z,64.60
2023-05-07T18:48:25.296Z,64.60
2023-05-07T18:50:52.577Z,64.80
2023-05-07T18:53:19.620Z,65.10
2023-05-07T18:55:50.804Z,65.20
2023-05-07T18:58:19.880Z,65.30
2023-05-07T19:00:50.311Z,65.30
2023-05-07T19:03:17.561Z,65.10
2023-05-07T19:05:45.619Z,65.40
2023-05-07T19:08:12.967Z,65.90
2023-05-07T19:10:39.754Z,64.80
2023-05-07T19:13:06.863Z,65.80
2023-05-07T19:15:33.933Z,65.30
2023-05-07T19:18:00.762Z,65.70
2023-05-07T19:20:28.185Z,65.60
2023-05-07T19:22:55.180Z,65.60
2023-05-07T19:25:22.130Z,65.60
2023-05-07T19:27:50.787Z,65.60
2023-05-07T19:30:17.934Z,66.10
2023-05-07T19:32:44.875Z,66.10
2023-05-07T19:35:11.976Z,65.90
2023-05-07T19:37:39.556Z,66.50
2023-05-07T19:40:07.149Z,66.10
2023-05-07T19:42:34.071Z,66.40
2023-05-07T19:45:01.111Z,66.80
2023-05-07T19:47:28.027Z,66.80
2023-05-07T19:49:54.840Z,66.40
2023-05-07T19:52:21.710Z,66.70
2023-05-07T19:54:48.542Z,65.90
2023-05-07T19:57:17.527Z,66.10
2023-05-07T19:59:46.284Z,66.30
2023-05-07T20:02:13.139Z,66.80
2023-05-07T20:04:40.041Z,66.20
2023-05-07T20:07:06.934Z,66.40
2023-05-07T20:09:34.107Z,66.40
2023-05-07T20:12:01.015Z,66.20
2023-05-07T20:14:28.048Z,66.60
2023-05-07T20:16:54.832Z,66.40
2023-05-07T20:19:21.791Z,66.60
2023-05-07T20:21:48.818Z,66.90
2023-05-07T20:24:16.796Z,66.70
2023-05-07T20:26:43.593Z,66.70
2023-05-07T20:29:10.425Z,66.60
2023-05-07T20:31:37.334Z,66.60
2023-05-07T20:34:04.141Z,67.00
2023-05-07T20:36:31.052Z,67.10
2023-05-07T20:38:57.872Z,67.10
2023-05-07T20:41:25.500Z,67.00
2023-05-07T20:43:52.486Z,67.30
2023-05-07T20:46:22.610Z,67.50
2023-05-07T20:48:50.135Z,67.70
2023-05-07T20:51:17.063Z,67.70
2023-05-07T20:53:45.496Z,67.90
2023-05-07T20:56:13.668Z,68.10
2023-05-07T20:58:40.584Z,67.90
2023-05-07T21:01:07.481Z,68.10
2023-05-07T21:03:34.414Z,68.50
2023-05-07T21:06:01.510Z,68.40
2023-05-07T21:08:28.318Z,68.60
2023-05-07T21:10:55.867Z,68.10
2023-05-07T21:13:23.387Z,68.30
2023-05-07T21:15:50.675Z,68.40
2023-05-07T21:18:19.155Z,68.50
2023-05-07T21:20:46.047Z,68.30
2023-05-07T21:23:12.918Z,68.50
2023-05-07T21:25:41.369Z,68.70
2023-05-07T21:28:11.677Z,68.90
2023-05-07T21:30:38.594Z,69.30
2023-05-07T21:33:07.779Z,69.40
2023-05-07T21:35:36.713Z,69.20
2023-05-07T21:38:03.926Z,69.80
2023-05-07T21:40:31.045Z,69.70
2023-05-07T21:43:00.144Z,69.80
2023-05-07T21:45:27.064Z,69.70
2023-05-07T21:47:53.902Z,69.60
2023-05-07T21:50:21.420Z,69.80
2023-05-07T21:52:48.950Z,70.10
2023-05-07T21:55:17.593Z,69.80
2023-05-07T21:57:50.689Z,69.80
2023-05-07T22:00:17.782Z,69.60
2023-05-07T22:02:44.727Z,69.40
2023-05-07T22:05:11.572Z,69.60
2023-05-07T22:07:38.455Z,69.90
2023-05-07T22:10:05.825Z,70.20
2023-05-07T22:12:32.649Z,69.70
2023-05-07T22:14:59.473Z,69.80
2023-05-07T22:17:26.334Z,70.00
2023-05-07T22:19:53.155Z,69.90
2023-05-07T22:22:19.973Z,69.80
2023-05-07T22:24:46.898Z,70.20
2023-05-07T22:27:13.724Z,70.20
2023-05-07T22:29:40.810Z,70.60
2023-05-07T22:32:08.779Z,69.90
2023-05-07T22:34:36.613Z,69.80
2023-05-07T22:37:03.415Z,70.00
2023-05-07T22:39:34.441Z,70.00
2023-05-07T22:42:02.398Z,69.90
2023-05-07T22:44:29.375Z,70.00
2023-05-07T22:46:56.193Z,69.90
2023-05-07T22:49:23.003Z,69.90
2023-05-07T22:51:49.808Z,69.60
2023-05-07T22:54:16.622Z,69.50
2023-05-07T22:56:43.388Z,68.90
2023-05-07T22:59:10.338Z,68.90
2023-05-07T23:01:37.271Z,69.30
2023-05-07T23:04:04.148Z,69.00
2023-05-07T23:06:31.229Z,69.10
2023-05-07T23:08:58.954Z,69.30
2023-05-07T23:11:26.403Z,69.30
2023-05-07T23:13:53.231Z,69.50
2023-05-07T23:16:20.106Z,68.70
2023-05-07T23:18:47.044Z,69.20
2023-05-07T23:21:13.795Z,69.60
2023-05-07T23:23:40.641Z,69.50
2023-05-07T23:26:07.495Z,69.80
2023-05-07T23:28:34.406Z,69.60
2023-05-07T23:31:01.254Z,69.70
2023-05-07T23:33:28.078Z,69.10
2023-05-07T23:36:01.764Z,69.80
2023-05-07T23:38:28.674Z,70.10
2023-05-07T23:40:55.650Z,69.80
2023-05-07T23:43:22.953Z,69.90
2023-05-07T23:45:49.993Z,69.70
2023-05-07T23:48:16.796Z,69.30
2023-05-07T23:50:43.780Z,69.70
2023-05-07T23:53:10.901Z,70.10
2023-05-07T23:55:38.341Z,69.70
2023-05-07T23:58:05.253Z,70.00
